Palo Alto, CA (94301)

12:01 AM PST on February 11, 2016 (GMT -0800)
McPhail Data Systems | | Change Station
CLOSE
Current Station
Personal Weather Station
Location: Palo Alto, CA
Elevation: 36 ft
Nearby Weather Stations

Elev 36 ft 37.45 °N, 122.14 °W | Updated 7 seconds ago

Partly Cloudy
Partly Cloudy
48.9 °F
Feels Like 49 °F
N
0.0
Wind Variable Wind from SSE

Today
High -- | Low -- °F
--% Chance of Precip.
Yesterday
High -- | Low -- °F
Precip. -- in
Pressure 30.17 in
Visibility 10.0 miles
Clouds Clear
Windchill 49 °F
Dew Point 48 °F
Humidity 97%
Rainfall 0.00 in
Snow Depth Not available.
7:02 AM 5:43 PM
Waxing Crescent, 10% visible
METAR KNUQ 110756Z AUTO 00000KT 10SM CLR 13/09 A3016 RMK AO2 SLP216 T01330094 402170083
Pressure 30.17 in
Visibility 10.0 miles
Clouds Clear
Windchill 49 °F
Dew Point 48 °F
Humidity 97%
Rainfall 0.00 in
Snow Depth Not available.
7:02 AM 5:43 PM
Waxing Crescent, 10% visible
METAR KNUQ 110756Z AUTO 00000KT 10SM CLR 13/09 A3016 RMK AO2 SLP216 T01330094 402170083

10-Day Weather Forecast

Almanac

Astronomy

Feb. 11, 2016 Rise Set
Actual Time
Civil Twilight
Nautical Twilight
Astronomical Twilight
Moon
Length of Visible Light
Length of Day
Tomorrow will be .
, % of the Moon is Illuminated

Today's Extremes

State Highs State Lows

Community

WunderPhotos

Upload Photos

1,892,030 photos uploaded!

WunderBlog® & News

Nearby

Air Quality

  Air Quality AQ Index Pollutant
Not available.

Snow Depth

Station Depth Elevation

Earthquake Activity

City Distance Mag. Time & Date
Minimum magnitude displayed is 2.5.

Coastal Water Temperatures

Place Temperature

Stations

Nearby Weather Stations

Station Location Temp. Windchill Dew Point Humidity Wind Precip. Elev Updated Type
                   

Watches & Warnings

There are currently no watches in effect.